createdAt,value
2017-09-19T00:02:25.059Z,80.40
2017-09-19T00:04:52.623Z,80.20
2017-09-19T00:07:20.227Z,80.40
2017-09-19T00:09:47.785Z,80.40
2017-09-19T00:12:15.380Z,80.50
2017-09-19T00:14:43.741Z,80.40
2017-09-19T00:17:11.298Z,80.40
2017-09-19T00:19:38.880Z,80.40
2017-09-19T00:22:07.261Z,80.40
2017-09-19T00:24:34.909Z,80.30
2017-09-19T00:27:03.278Z,80.50
2017-09-19T00:29:30.838Z,80.50
2017-09-19T00:31:58.426Z,80.60
2017-09-19T00:34:25.998Z,80.50
2017-09-19T00:36:53.585Z,80.60
2017-09-19T00:39:21.140Z,80.70
2017-09-19T00:41:48.709Z,80.50
2017-09-19T00:44:16.300Z,80.60
2017-09-19T00:46:44.640Z,80.40
2017-09-19T00:49:12.239Z,80.40
2017-09-19T00:51:40.647Z,80.90
2017-09-19T00:54:08.219Z,80.50
2017-09-19T00:56:35.797Z,80.50
2017-09-19T00:59:03.427Z,80.60
2017-09-19T01:01:30.972Z,81.20
2017-09-19T01:03:59.294Z,80.70
2017-09-19T01:06:26.875Z,80.60
2017-09-19T01:08:54.433Z,80.50
2017-09-19T01:11:22.040Z,80.50
2017-09-19T01:13:49.593Z,80.30
2017-09-19T01:16:17.150Z,80.30
2017-09-19T01:18:45.535Z,80.50
2017-09-19T01:21:13.151Z,80.50
2017-09-19T01:23:40.750Z,80.40
2017-09-19T01:26:09.076Z,80.00
2017-09-19T01:28:36.635Z,80.00
2017-09-19T01:31:04.220Z,80.50
2017-09-19T01:33:31.808Z,79.90
2017-09-19T01:36:00.176Z,79.90
2017-09-19T01:38:28.537Z,79.40
2017-09-19T01:40:56.101Z,79.30
2017-09-19T01:43:23.680Z,78.60
2017-09-19T01:45:52.021Z,78.20
2017-09-19T01:48:19.606Z,78.10
2017-09-19T01:50:47.165Z,77.70
2017-09-19T01:53:14.771Z,77.50
2017-09-19T01:55:42.359Z,77.00
2017-09-19T01:58:09.915Z,76.80
2017-09-19T02:00:37.508Z,76.80
2017-09-19T02:03:05.839Z,76.80
2017-09-19T02:05:33.375Z,76.60
2017-09-19T02:08:00.959Z,76.60
2017-09-19T02:10:29.294Z,76.90
2017-09-19T02:12:57.598Z,77.10
2017-09-19T02:15:25.180Z,77.70
2017-09-19T02:17:52.740Z,77.30
2017-09-19T02:20:20.327Z,77.40
2017-09-19T02:22:47.929Z,77.70
2017-09-19T02:25:15.483Z,77.70
2017-09-19T02:27:43.058Z,77.90
2017-09-19T02:30:10.652Z,78.20
2017-09-19T02:32:38.190Z,78.20
2017-09-19T02:35:05.765Z,78.40
2017-09-19T02:37:33.383Z,78.60
2017-09-19T02:40:00.926Z,78.80
2017-09-19T02:42:29.255Z,79.00
2017-09-19T02:44:56.825Z,78.90
2017-09-19T02:47:24.395Z,79.00
2017-09-19T02:49:52.028Z,79.20
2017-09-19T02:52:19.569Z,79.10
2017-09-19T02:54:47.127Z,78.90
2017-09-19T02:57:14.786Z,78.80
2017-09-19T02:59:42.327Z,78.60
2017-09-19T03:02:10.641Z,79.10
2017-09-19T03:04:38.259Z,79.00
2017-09-19T03:07:06.642Z,78.90
2017-09-19T03:09:34.965Z,79.00
2017-09-19T03:12:02.541Z,79.00
2017-09-19T03:14:30.879Z,79.20
2017-09-19T03:16:58.466Z,79.20
2017-09-19T03:19:26.015Z,79.20
2017-09-19T03:21:53.597Z,79.20
2017-09-19T03:24:21.196Z,79.10
2017-09-19T03:26:48.730Z,78.90
2017-09-19T03:29:16.291Z,78.80
2017-09-19T03:31:43.864Z,78.80
2017-09-19T03:34:12.176Z,78.80
2017-09-19T03:36:39.773Z,78.80
2017-09-19T03:39:07.367Z,78.60
2017-09-19T03:41:35.699Z,78.90
2017-09-19T03:44:03.341Z,78.90
2017-09-19T03:46:30.933Z,78.60
2017-09-19T03:48:58.477Z,78.70
2017-09-19T03:51:26.080Z,78.60
2017-09-19T03:53:53.628Z,79.50
2017-09-19T03:56:21.182Z,80.00
2017-09-19T03:58:48.795Z,80.00
2017-09-19T04:01:16.363Z,79.30
2017-09-19T04:03:43.932Z,78.80
2017-09-19T04:06:11.555Z,78.60
2017-09-19T04:08:39.890Z,78.50
2017-09-19T04:11:07.530Z,78.50
2017-09-19T04:13:35.095Z,78.80
2017-09-19T04:16:02.643Z,78.60
2017-09-19T04:18:30.321Z,78.60
2017-09-19T04:20:57.877Z,78.60
2017-09-19T04:23:25.433Z,78.80
2017-09-19T04:25:53.012Z,78.50
2017-09-19T04:28:20.631Z,78.20
2017-09-19T04:30:48.226Z,78.20
2017-09-19T04:33:15.814Z,79.00
2017-09-19T04:35:43.347Z,78.80
2017-09-19T04:38:10.897Z,78.80
2017-09-19T04:40:38.478Z,78.40
2017-09-19T04:43:06.058Z,78.10
2017-09-19T04:45:34.367Z,78.90
2017-09-19T04:48:01.949Z,78.90
2017-09-19T04:50:29.536Z,79.10
2017-09-19T04:52:57.123Z,79.00
2017-09-19T04:55:25.423Z,78.30
2017-09-19T04:57:52.989Z,78.20
2017-09-19T05:00:20.569Z,78.10
2017-09-19T05:02:48.912Z,77.90
2017-09-19T05:05:16.537Z,77.90
2017-09-19T05:07:44.083Z,77.70
2017-09-19T05:10:11.623Z,78.30
2017-09-19T05:12:39.223Z,78.70
2017-09-19T05:15:06.785Z,77.60
2017-09-19T05:17:35.095Z,77.40
2017-09-19T05:20:02.687Z,77.40
2017-09-19T05:22:30.295Z,77.10
2017-09-19T05:24:58.660Z,77.00
2017-09-19T05:27:26.225Z,77.00
2017-09-19T05:29:54.640Z,77.10
2017-09-19T05:32:22.228Z,77.00
2017-09-19T05:34:49.767Z,77.20
2017-09-19T05:37:17.419Z,77.30
2017-09-19T05:39:45.005Z,77.60
2017-09-19T05:42:12.558Z,77.60
2017-09-19T05:44:40.134Z,77.00
2017-09-19T05:47:07.694Z,76.80
2017-09-19T05:49:35.274Z,77.10
2017-09-19T05:52:02.839Z,77.10
2017-09-19T05:54:30.402Z,77.20
2017-09-19T05:56:58.759Z,77.10
2017-09-19T05:59:26.342Z,77.10
2017-09-19T06:01:54.755Z,76.90
2017-09-19T06:04:22.300Z,76.90
2017-09-19T06:06:49.859Z,77.10
2017-09-19T06:09:29.174Z,77.50
2017-09-19T06:11:57.489Z,77.70
2017-09-19T06:14:25.055Z,77.20
2017-09-19T06:16:52.628Z,77.00
2017-09-19T06:19:20.196Z,76.80
2017-09-19T06:21:47.846Z,76.90
2017-09-19T06:24:15.437Z,76.60
2017-09-19T06:26:43.041Z,76.70
2017-09-19T06:29:10.641Z,76.70
2017-09-19T06:31:38.237Z,76.80
2017-09-19T06:34:06.565Z,76.40
2017-09-19T06:36:34.139Z,76.30
2017-09-19T06:39:01.687Z,76.60
2017-09-19T06:41:29.285Z,76.60
2017-09-19T06:43:56.847Z,76.80
2017-09-19T06:46:25.159Z,76.20
2017-09-19T06:48:52.755Z,76.60
2017-09-19T06:51:20.322Z,76.30
2017-09-19T06:53:47.881Z,76.10
2017-09-19T06:56:15.477Z,76.80
2017-09-19T06:58:43.783Z,75.90
2017-09-19T07:01:11.357Z,75.90
2017-09-19T07:03:38.949Z,76.60
2017-09-19T07:06:06.534Z,76.30
2017-09-19T07:08:34.882Z,74.40
2017-09-19T07:11:02.435Z,74.40
2017-09-19T07:13:30.013Z,74.20
2017-09-19T07:15:57.566Z,74.30
2017-09-19T07:18:25.150Z,74.50
2017-09-19T07:20:53.531Z,74.00
2017-09-19T07:23:21.874Z,74.50
2017-09-19T07:25:49.454Z,74.50
2017-09-19T07:28:17.037Z,74.30
2017-09-19T07:30:44.579Z,74.10
2017-09-19T07:33:12.923Z,74.60
2017-09-19T07:35:40.475Z,74.60
2017-09-19T07:38:08.029Z,74.10
2017-09-19T07:40:36.390Z,73.50
2017-09-19T07:43:03.955Z,73.90
2017-09-19T07:45:31.541Z,73.70
2017-09-19T07:47:59.105Z,74.10
2017-09-19T07:50:26.662Z,73.40
2017-09-19T07:52:54.241Z,74.40
2017-09-19T07:55:21.817Z,75.30
2017-09-19T07:57:50.159Z,74.10
2017-09-19T08:00:17.737Z,74.10
2017-09-19T08:02:45.328Z,74.10
2017-09-19T08:05:12.889Z,74.40
2017-09-19T08:07:40.465Z,74.40
2017-09-19T08:10:08.025Z,74.20
2017-09-19T08:12:35.605Z,74.50
2017-09-19T08:15:03.165Z,74.80
2017-09-19T08:17:30.730Z,74.90
2017-09-19T08:19:58.305Z,74.50
2017-09-19T08:22:25.881Z,73.80
2017-09-19T08:24:53.481Z,74.40
2017-09-19T08:27:21.047Z,74.00
2017-09-19T08:29:48.602Z,74.00
2017-09-19T08:32:16.177Z,74.60
2017-09-19T08:34:43.755Z,75.00
2017-09-19T08:37:11.336Z,74.80
2017-09-19T08:39:38.908Z,76.20
2017-09-19T08:42:07.243Z,75.40
2017-09-19T08:44:34.815Z,75.20
2017-09-19T08:47:02.411Z,75.00
2017-09-19T08:49:30.733Z,75.10
2017-09-19T08:51:58.313Z,75.10
2017-09-19T08:54:25.855Z,75.20
2017-09-19T08:56:53.410Z,75.70
2017-09-19T08:59:20.975Z,74.70
2017-09-19T09:01:48.537Z,74.50
2017-09-19T09:04:16.121Z,73.90
2017-09-19T09:06:43.695Z,73.80
2017-09-19T09:09:12.022Z,74.50
2017-09-19T09:11:39.601Z,74.50
2017-09-19T09:14:07.177Z,75.70
2017-09-19T09:16:34.782Z,73.20
2017-09-19T09:19:02.341Z,74.60
2017-09-19T09:21:29.914Z,74.50
2017-09-19T09:23:57.483Z,73.80
2017-09-19T09:26:25.049Z,73.30
2017-09-19T09:28:52.642Z,73.30
2017-09-19T09:31:20.187Z,74.20
2017-09-19T09:33:47.741Z,74.70
2017-09-19T09:36:15.360Z,73.60
2017-09-19T09:38:42.950Z,72.80
2017-09-19T09:41:10.541Z,72.60
2017-09-19T09:43:38.089Z,72.80
2017-09-19T09:46:05.651Z,72.30
2017-09-19T09:48:33.271Z,72.20
2017-09-19T09:51:00.835Z,72.10
2017-09-19T09:53:28.383Z,71.90
2017-09-19T09:55:55.983Z,72.10
2017-09-19T09:58:23.660Z,72.40
2017-09-19T10:00:52.058Z,72.60
2017-09-19T10:03:19.744Z,72.70
2017-09-19T10:05:47.305Z,73.40
2017-09-19T10:08:14.900Z,74.60
2017-09-19T10:10:42.444Z,75.60
2017-09-19T10:13:09.997Z,75.50
2017-09-19T10:15:37.567Z,74.70
2017-09-19T10:18:05.143Z,75.50
2017-09-19T10:20:32.741Z,75.90
2017-09-19T10:23:01.073Z,77.60
2017-09-19T10:25:28.660Z,77.60
2017-09-19T10:27:56.319Z,77.20
2017-09-19T10:30:23.886Z,77.10
2017-09-19T10:32:51.469Z,77.00
2017-09-19T10:35:19.793Z,76.60
2017-09-19T10:37:47.377Z,76.60
2017-09-19T10:40:15.011Z,76.30
2017-09-19T10:42:42.590Z,76.20
2017-09-19T10:45:10.180Z,76.00
2017-09-19T10:47:38.539Z,76.50
2017-09-19T10:50:06.861Z,76.90
2017-09-19T10:52:34.417Z,77.50
2017-09-19T10:55:02.026Z,76.80
2017-09-19T10:57:29.597Z,76.90
2017-09-19T10:59:57.153Z,76.40
2017-09-19T11:02:25.524Z,76.60
2017-09-19T11:04:53.077Z,76.60
2017-09-19T11:07:21.633Z,77.30
2017-09-19T11:09:49.223Z,77.70
2017-09-19T11:12:16.785Z,77.50
2017-09-19T11:14:44.366Z,79.40
2017-09-19T11:17:12.709Z,78.90
2017-09-19T11:19:40.279Z,78.80
2017-09-19T11:22:07.819Z,79.50
2017-09-19T11:24:35.411Z,79.60
2017-09-19T11:27:02.977Z,80.10
2017-09-19T11:29:31.304Z,80.00
2017-09-19T11:31:58.937Z,80.00
2017-09-19T11:34:27.306Z,80.10
2017-09-19T11:36:55.612Z,80.00
2017-09-19T11:39:23.207Z,79.90
2017-09-19T11:41:50.748Z,80.30
2017-09-19T11:44:18.345Z,81.10
2017-09-19T11:46:45.901Z,81.60
2017-09-19T11:49:13.457Z,80.30
2017-09-19T11:51:41.042Z,80.00
2017-09-19T11:54:09.365Z,79.90
2017-09-19T11:56:36.959Z,79.90
2017-09-19T11:59:04.570Z,79.70
2017-09-19T12:01:32.122Z,78.60
2017-09-19T12:03:59.712Z,79.90
2017-09-19T12:06:27.316Z,80.90
2017-09-19T12:08:55.686Z,79.10
2017-09-19T12:11:24.026Z,79.50
2017-09-19T12:13:51.580Z,79.50
2017-09-19T12:16:19.196Z,80.10
2017-09-19T12:18:47.514Z,79.00
2017-09-19T12:21:15.059Z,78.90
2017-09-19T12:23:42.662Z,79.40
2017-09-19T12:26:10.203Z,77.70
2017-09-19T12:28:38.552Z,76.80
2017-09-19T12:31:06.190Z,76.80
2017-09-19T12:33:34.537Z,78.40
2017-09-19T12:36:02.112Z,78.30
2017-09-19T12:38:29.668Z,78.50
2017-09-19T12:40:57.249Z,77.50
2017-09-19T12:43:25.571Z,76.70
2017-09-19T12:45:53.145Z,76.70
2017-09-19T12:48:20.732Z,76.70
2017-09-19T12:50:49.102Z,77.30
2017-09-19T12:53:16.733Z,77.30
2017-09-19T12:55:44.300Z,77.60
2017-09-19T12:58:11.858Z,76.60
2017-09-19T13:00:39.431Z,77.60
2017-09-19T13:03:06.999Z,77.00
2017-09-19T13:05:34.576Z,76.40
2017-09-19T13:08:02.915Z,75.70
2017-09-19T13:10:30.489Z,75.60
2017-09-19T13:12:58.058Z,76.40
2017-09-19T13:15:25.604Z,76.20
2017-09-19T13:17:53.210Z,75.80
2017-09-19T13:20:20.797Z,76.00
2017-09-19T13:22:48.378Z,76.20
2017-09-19T13:25:16.015Z,77.10
2017-09-19T13:27:43.572Z,77.30
2017-09-19T13:30:11.158Z,77.60
2017-09-19T13:35:41.350Z,77.50
2017-09-19T13:38:09.672Z,77.40
2017-09-19T13:40:37.250Z,77.40
2017-09-19T13:43:04.835Z,77.10
2017-09-19T13:45:33.151Z,78.60
2017-09-19T13:48:00.731Z,78.60
2017-09-19T13:50:28.347Z,78.10
2017-09-19T13:52:55.907Z,77.90
2017-09-19T13:55:23.492Z,77.90
2017-09-19T13:57:51.081Z,77.80
2017-09-19T14:00:18.652Z,78.90
2017-09-19T14:02:46.204Z,80.00
2017-09-19T14:05:13.798Z,80.00
2017-09-19T14:07:42.118Z,78.80
2017-09-19T14:10:09.727Z,78.80
2017-09-19T14:12:38.081Z,78.60
2017-09-19T14:15:05.633Z,78.60
2017-09-19T14:17:33.244Z,78.00
2017-09-19T14:20:00.817Z,77.50
2017-09-19T14:22:28.404Z,77.70
2017-09-19T14:24:56.019Z,77.90
2017-09-19T14:27:24.355Z,77.20
2017-09-19T14:29:52.099Z,77.20
2017-09-19T14:32:19.685Z,77.50
2017-09-19T14:34:48.034Z,77.40
2017-09-19T14:37:15.598Z,77.40
2017-09-19T14:39:43.213Z,77.30
2017-09-19T14:42:11.569Z,77.80
2017-09-19T14:44:39.115Z,77.80
2017-09-19T14:47:06.711Z,78.90
2017-09-19T14:49:35.078Z,80.50
2017-09-19T14:52:03.395Z,80.70
2017-09-19T14:54:30.999Z,80.60
2017-09-19T14:56:58.585Z,81.40
2017-09-19T14:59:26.908Z,79.30
2017-09-19T15:01:54.503Z,79.30
2017-09-19T15:04:22.063Z,78.40
2017-09-19T15:06:49.607Z,79.30
2017-09-19T15:09:17.203Z,78.40
2017-09-19T15:11:45.542Z,78.60
2017-09-19T15:14:13.101Z,78.60
2017-09-19T15:16:40.683Z,78.40
2017-09-19T15:19:08.245Z,78.20
2017-09-19T15:21:35.794Z,78.00
2017-09-19T15:24:03.388Z,77.80
2017-09-19T15:26:31.761Z,76.80
2017-09-19T15:29:00.074Z,77.00
2017-09-19T15:31:27.649Z,77.00
2017-09-19T15:33:55.230Z,76.70
2017-09-19T15:36:22.774Z,75.90
2017-09-19T15:38:50.357Z,76.10
2017-09-19T15:41:17.913Z,75.80
2017-09-19T15:43:45.479Z,75.80
2017-09-19T15:46:13.066Z,76.20
2017-09-19T15:48:40.627Z,76.20
2017-09-19T15:51:08.194Z,76.20
2017-09-19T15:53:35.818Z,76.70
2017-09-19T15:56:03.373Z,77.90
2017-09-19T15:58:30.949Z,78.60
2017-09-19T16:00:59.296Z,78.50
2017-09-19T16:03:26.857Z,78.50
2017-09-19T16:05:54.433Z,78.40
2017-09-19T16:08:22.043Z,78.10
2017-09-19T16:10:49.612Z,78.00
2017-09-19T16:13:17.175Z,77.80
2017-09-19T16:15:44.784Z,78.40
2017-09-19T16:18:13.092Z,78.00
2017-09-19T16:20:40.627Z,78.00
2017-09-19T16:23:08.983Z,79.80
2017-09-19T16:25:36.544Z,79.80
2017-09-19T16:28:04.136Z,79.80
2017-09-19T16:30:31.745Z,80.00
2017-09-19T16:32:59.347Z,79.20
2017-09-19T16:35:27.649Z,79.30
2017-09-19T16:37:55.247Z,79.30
2017-09-19T16:40:22.804Z,80.00
2017-09-19T16:42:50.346Z,80.10
2017-09-19T16:45:17.947Z,79.20
2017-09-19T16:47:45.525Z,79.40
2017-09-19T16:50:13.832Z,79.60
2017-09-19T16:52:41.420Z,79.60
2017-09-19T16:55:09.018Z,79.20
2017-09-19T16:57:37.351Z,78.60
2017-09-19T17:00:04.953Z,78.60
2017-09-19T17:02:33.289Z,79.80
2017-09-19T17:05:01.618Z,80.50
2017-09-19T17:07:29.974Z,80.70
2017-09-19T17:09:58.308Z,80.90
2017-09-19T17:12:25.889Z,80.80
2017-09-19T17:14:53.477Z,81.00
2017-09-19T17:17:21.787Z,81.10
2017-09-19T17:19:49.382Z,81.10
2017-09-19T17:22:16.982Z,81.30
2017-09-19T17:24:45.291Z,81.60
2017-09-19T17:27:12.887Z,81.60
2017-09-19T17:29:40.529Z,81.40
2017-09-19T17:32:08.105Z,81.70
2017-09-19T17:34:35.682Z,81.60
2017-09-19T17:37:03.277Z,80.80
2017-09-19T17:39:30.837Z,81.20
2017-09-19T17:41:58.402Z,80.70
2017-09-19T17:44:26.041Z,80.50
2017-09-19T17:46:54.383Z,80.60
2017-09-19T17:49:22.715Z,80.60
2017-09-19T17:51:50.316Z,80.60
2017-09-19T17:54:17.916Z,80.60
2017-09-19T17:56:46.250Z,80.90
2017-09-19T17:59:13.859Z,80.90
2017-09-19T18:01:42.191Z,81.10
2017-09-19T18:04:09.765Z,81.00
2017-09-19T18:06:37.394Z,80.90
2017-09-19T18:09:05.003Z,80.90
2017-09-19T18:11:32.605Z,80.70
2017-09-19T18:14:00.192Z,80.70
2017-09-19T18:16:27.749Z,80.50
2017-09-19T18:18:55.351Z,80.60
2017-09-19T18:21:23.704Z,81.20
2017-09-19T18:23:51.261Z,81.20
2017-09-19T18:26:18.837Z,81.40
2017-09-19T18:28:46.416Z,81.50
2017-09-19T18:31:14.734Z,81.80
2017-09-19T18:33:42.337Z,81.80
2017-09-19T18:36:09.978Z,81.80
2017-09-19T18:38:37.625Z,82.00
2017-09-19T18:41:05.185Z,82.20
2017-09-19T18:43:32.787Z,82.10
2017-09-19T18:46:01.100Z,82.20
2017-09-19T18:48:28.782Z,82.20
2017-09-19T18:50:56.363Z,82.00
2017-09-19T18:53:23.961Z,82.30
2017-09-19T18:55:51.535Z,82.20
2017-09-19T18:58:19.121Z,82.30
2017-09-19T19:00:46.733Z,82.30
2017-09-19T19:03:15.090Z,82.30
2017-09-19T19:05:42.673Z,82.30
2017-09-19T19:08:11.025Z,82.40
2017-09-19T19:10:38.600Z,82.30
2017-09-19T19:13:06.947Z,82.50
2017-09-19T19:15:34.488Z,82.50
2017-09-19T19:18:02.062Z,82.60
2017-09-19T19:20:29.659Z,82.60
2017-09-19T19:22:57.993Z,82.70
2017-09-19T19:25:30.420Z,82.80
2017-09-19T19:27:58.759Z,82.50
2017-09-19T19:30:26.308Z,82.50
2017-09-19T19:32:53.895Z,82.20
2017-09-19T19:35:21.450Z,82.00
2017-09-19T19:37:48.998Z,81.40
2017-09-19T19:40:16.581Z,81.60
2017-09-19T19:42:44.922Z,82.40
2017-09-19T19:45:12.507Z,81.70
2017-09-19T19:47:40.141Z,81.40
2017-09-19T19:50:07.707Z,81.50
2017-09-19T19:52:35.263Z,81.30
2017-09-19T19:55:02.937Z,81.80
2017-09-19T19:57:30.528Z,81.30
2017-09-19T19:59:58.861Z,80.70
2017-09-19T20:02:26.444Z,80.60
2017-09-19T20:04:54.032Z,80.10
2017-09-19T20:07:22.341Z,80.10
2017-09-19T20:09:49.939Z,80.10
2017-09-19T20:12:17.545Z,80.00
2017-09-19T20:14:45.110Z,79.90
2017-09-19T20:17:12.701Z,79.80
2017-09-19T20:19:40.274Z,79.80
2017-09-19T20:22:07.834Z,80.30
2017-09-19T20:24:35.419Z,80.50
2017-09-19T20:27:03.789Z,80.10
2017-09-19T20:29:31.386Z,80.10
2017-09-19T20:31:58.975Z,80.10
2017-09-19T20:34:26.524Z,81.10
2017-09-19T20:36:54.096Z,80.70
2017-09-19T20:39:21.681Z,81.20
2017-09-19T20:41:49.246Z,81.00
2017-09-19T20:44:16.810Z,80.70
2017-09-19T20:46:45.169Z,80.80
2017-09-19T20:49:12.762Z,80.80
2017-09-19T20:51:41.093Z,81.00
2017-09-19T20:54:08.712Z,81.00
2017-09-19T20:56:36.255Z,81.40
2017-09-19T20:59:04.587Z,81.00
2017-09-19T21:01:32.164Z,80.90
2017-09-19T21:04:05.317Z,80.90
2017-09-19T21:06:38.529Z,80.90
2017-09-19T21:09:11.825Z,81.00
2017-09-19T21:11:44.970Z,81.10
2017-09-19T21:14:18.333Z,81.20
2017-09-19T21:16:51.435Z,81.30
2017-09-19T21:19:24.841Z,80.80
2017-09-19T21:21:53.240Z,80.50
2017-09-19T21:24:20.803Z,80.50
2017-09-19T21:26:48.342Z,81.10
2017-09-19T21:29:16.693Z,80.30
2017-09-19T21:31:44.258Z,80.30
2017-09-19T21:34:11.817Z,80.90
2017-09-19T21:36:39.418Z,80.80
2017-09-19T21:39:06.973Z,80.60
2017-09-19T21:41:34.529Z,80.90
2017-09-19T21:44:02.134Z,81.10
2017-09-19T21:46:29.714Z,81.20
2017-09-19T21:48:57.308Z,80.90
2017-09-19T21:51:25.689Z,80.80
2017-09-19T21:53:53.245Z,80.80
2017-09-19T21:56:23.661Z,80.40
2017-09-19T21:58:52.024Z,80.60
2017-09-19T22:01:19.567Z,80.60
2017-09-19T22:03:47.135Z,80.90
2017-09-19T22:06:14.739Z,81.40
2017-09-19T22:08:42.301Z,81.40
2017-09-19T22:11:09.848Z,81.20
2017-09-19T22:13:38.200Z,81.00
2017-09-19T22:16:05.760Z,81.00
2017-09-19T22:18:33.326Z,81.10
2017-09-19T22:21:03.037Z,80.90
2017-09-19T22:23:31.884Z,80.90
2017-09-19T22:25:59.474Z,80.70
2017-09-19T22:28:27.056Z,80.80
2017-09-19T22:30:55.390Z,80.60
2017-09-19T22:33:22.973Z,80.60
2017-09-19T22:35:50.547Z,80.60
2017-09-19T22:38:18.879Z,80.70
2017-09-19T22:40:46.475Z,80.70
2017-09-19T22:43:14.047Z,80.90
2017-09-19T22:45:42.377Z,81.00
2017-09-19T22:48:09.935Z,81.10
2017-09-19T22:50:37.539Z,80.90
2017-09-19T22:53:05.093Z,80.80
2017-09-19T22:55:32.667Z,80.70
2017-09-19T22:58:03.137Z,80.90
2017-09-19T23:00:30.683Z,80.90
2017-09-19T23:02:58.255Z,81.20
2017-09-19T23:05:25.873Z,80.80
2017-09-19T23:07:54.211Z,80.70
2017-09-19T23:10:21.787Z,80.70
2017-09-19T23:12:49.410Z,80.70
2017-09-19T23:15:16.959Z,80.70
2017-09-19T23:17:44.503Z,80.80
2017-09-19T23:20:12.101Z,81.10
2017-09-19T23:22:39.669Z,81.10
2017-09-19T23:25:07.233Z,81.20
2017-09-19T23:27:34.820Z,81.10
2017-09-19T23:30:02.367Z,81.10
2017-09-19T23:32:29.930Z,81.40
2017-09-19T23:34:57.557Z,81.20
2017-09-19T23:37:25.145Z,81.20
2017-09-19T23:39:52.725Z,81.20
2017-09-19T23:42:21.142Z,81.60
2017-09-19T23:44:48.711Z,81.60
2017-09-19T23:47:16.270Z,82.00
2017-09-19T23:49:43.905Z,82.20
2017-09-19T23:52:12.204Z,82.30
2017-09-19T23:54:39.779Z,82.30
2017-09-19T23:57:07.369Z,82.10
2017-09-19T23:59:34.922Z,82.30
